Time;durP1;ratioP1;P1;durP2;ratioP2;P2;SDS_P1;SDS_P2;PMS_P1;PMS_P2;Temp;Humidity;BMP_temperature;BMP_pressure;BME280_temperature;BME280_humidity;BME280_pressure;Samples;Min_cycle;Max_cycle;Signal;HPM_P1;HPM_P2
2020/12/08 00:01:12;;;;;;;11.70;10.50;;;;;;;;;;5098274;28;20241;-83
2020/12/08 00:03:38;;;;;;;12.70;10.90;;;;;;;;;;5097435;28;20260;-84
2020/12/08 00:06:04;;;;;;;11.50;10.30;;;;;;;;;;5098291;28;20232;-84
2020/12/08 00:08:30;;;;;;;12.43;10.33;;;;;;;;;;5097616;28;20241;-83
2020/12/08 00:10:56;;;;;;;10.80;9.70;;;;;;;;;;5098089;28;20236;-85
2020/12/08 00:13:23;;;;;;;12.10;10.80;;;;;;;;;;5097530;28;20539;-82
2020/12/08 00:15:49;;;;;;;11.37;10.17;;;;;;;;;;5097843;28;20275;-84
2020/12/08 00:18:15;;;;;;;11.77;10.57;;;;;;;;;;5097423;28;20237;-82
2020/12/08 00:20:41;;;;;;;11.57;10.37;;;;;;;;;;5097758;28;20225;-83
2020/12/08 00:23:08;;;;;;;11.37;10.17;;;;;;;;;;5097052;28;20614;-82
2020/12/08 00:25:34;;;;;;;12.80;10.80;;;;;;;;;;5097620;28;20225;-82
2020/12/08 00:28:00;;;;;;;13.87;10.70;;;;;;;;;;5096197;28;20222;-83
2020/12/08 00:30:27;;;;;;;12.83;11.47;;;;;;;;;;5097454;28;20240;-83
2020/12/08 00:32:53;;;;;;;12.17;10.63;;;;;;;;;;5097387;28;20567;-82
2020/12/08 00:35:19;;;;;;;12.03;10.70;;;;;;;;;;5097373;28;20241;-83
2020/12/08 00:37:46;;;;;;;12.23;10.93;;;;;;;;;;5097455;28;20690;-83
2020/12/08 00:40:12;;;;;;;12.43;10.33;;;;;;;;;;5097420;28;20229;-84
2020/12/08 00:42:39;;;;;;;12.53;10.70;;;;;;;;;;5097247;28;20529;-84
2020/12/08 00:45:06;;;;;;;11.77;10.57;;;;;;;;;;5097053;28;20238;-83
2020/12/08 00:47:33;;;;;;;13.30;10.10;;;;;;;;;;5097109;28;20237;-84
2020/12/08 00:49:59;;;;;;;13.67;11.17;;;;;;;;;;5097076;28;20389;-83
2020/12/08 00:52:25;;;;;;;11.83;10.63;;;;;;;;;;5097127;28;20240;-84
2020/12/08 00:54:51;;;;;;;11.40;10.20;;;;;;;;;;5097196;28;20626;-82
2020/12/08 00:57:19;;;;;;;10.87;9.73;;;;;;;;;;5096957;28;20280;-82
2020/12/08 00:59:45;;;;;;;11.00;9.73;;;;;;;;;;5096606;28;20507;-84
2020/12/08 01:02:13;;;;;;;12.67;10.30;;;;;;;;;;5097103;28;20240;-82
2020/12/08 01:04:40;;;;;;;11.27;10.07;;;;;;;;;;5097023;28;20201;-82
2020/12/08 01:07:06;;;;;;;11.13;9.80;;;;;;;;;;5096887;28;20607;-82
2020/12/08 01:09:32;;;;;;;12.40;10.40;;;;;;;;;;5097125;28;20206;-82
2020/12/08 01:11:59;;;;;;;11.00;9.83;;;;;;;;;;5096745;28;20229;-83
2020/12/08 01:14:25;;;;;;;10.83;9.73;;;;;;;;;;5096627;28;20240;-83
2020/12/08 01:16:51;;;;;;;13.33;10.87;;;;;;;;;;5096653;28;20256;-83
2020/12/08 01:19:17;;;;;;;13.80;11.33;;;;;;;;;;5096334;28;20240;-82
2020/12/08 01:21:44;;;;;;;12.87;10.97;;;;;;;;;;5096335;28;20233;-82
2020/12/08 01:24:10;;;;;;;12.10;10.13;;;;;;;;;;5096568;28;20263;-83
2020/12/08 01:26:36;;;;;;;12.70;10.73;;;;;;;;;;5096511;28;20543;-83
2020/12/08 01:29:02;;;;;;;14.50;10.80;;;;;;;;;;5096100;28;20240;-83
2020/12/08 01:31:30;;;;;;;13.27;10.80;;;;;;;;;;5095552;28;20260;-83
2020/12/08 01:33:56;;;;;;;12.57;9.93;;;;;;;;;;5096080;28;20209;-83
2020/12/08 01:36:22;;;;;;;14.00;10.00;;;;;;;;;;5096384;28;20261;-84
2020/12/08 01:38:49;;;;;;;11.73;10.10;;;;;;;;;;5095521;28;20267;-83
2020/12/08 01:41:15;;;;;;;12.17;9.80;;;;;;;;;;5096358;28;20275;-83
2020/12/08 01:43:45;;;;;;;12.17;10.07;;;;;;;;;;5095750;28;20226;-83
2020/12/08 01:46:11;;;;;;;11.97;10.33;;;;;;;;;;5095958;28;20202;-83
2020/12/08 01:48:37;;;;;;;11.27;10.07;;;;;;;;;;5095835;28;20233;-83
2020/12/08 01:51:03;;;;;;;11.13;9.93;;;;;;;;;;5096580;28;20221;-83
2020/12/08 01:53:30;;;;;;;12.43;10.60;;;;;;;;;;5096352;28;20237;-83
2020/12/08 01:55:57;;;;;;;12.87;11.00;;;;;;;;;;5106086;28;20205;-83
2020/12/08 01:58:23;;;;;;;11.53;10.27;;;;;;;;;;5094577;28;20194;-83
2020/12/08 02:00:49;;;;;;;11.93;10.00;;;;;;;;;;5095614;28;20232;-83
2020/12/08 02:03:15;;;;;;;11.23;10.07;;;;;;;;;;5095570;28;20206;-83
2020/12/08 02:05:42;;;;;;;12.00;9.80;;;;;;;;;;5095735;28;20229;-84
2020/12/08 02:08:08;;;;;;;11.53;10.33;;;;;;;;;;5095344;28;20206;-83
2020/12/08 02:10:34;;;;;;;13.60;10.37;;;;;;;;;;5095651;28;20201;-84
2020/12/08 02:13:02;;;;;;;12.33;10.40;;;;;;;;;;5095443;28;20244;-83
2020/12/08 02:15:29;;;;;;;11.93;10.63;;;;;;;;;;5095446;28;20576;-83
2020/12/08 02:17:55;;;;;;;13.17;10.73;;;;;;;;;;5095290;28;20241;-84
2020/12/08 02:20:22;;;;;;;12.17;10.67;;;;;;;;;;5095533;28;20233;-81
2020/12/08 02:22:48;;;;;;;11.77;10.57;;;;;;;;;;5095322;28;20275;-84
2020/12/08 02:25:14;;;;;;;12.17;10.57;;;;;;;;;;5095289;28;20209;-83
2020/12/08 02:27:40;;;;;;;11.90;10.17;;;;;;;;;;5095224;28;20233;-83
2020/12/08 02:30:06;;;;;;;12.20;10.37;;;;;;;;;;5095233;28;20233;-81
2020/12/08 02:32:32;;;;;;;12.33;10.47;;;;;;;;;;5094716;28;20253;-83
2020/12/08 02:34:58;;;;;;;14.50;11.30;;;;;;;;;;5095120;28;20571;-81
2020/12/08 02:37:25;;;;;;;13.70;11.43;;;;;;;;;;5095107;28;20245;-87
2020/12/08 02:39:51;;;;;;;14.87;11.37;;;;;;;;;;5095036;28;20229;-83
2020/12/08 02:42:18;;;;;;;13.63;11.13;;;;;;;;;;5095293;28;20225;-84
2020/12/08 02:44:44;;;;;;;14.27;11.27;;;;;;;;;;5095203;28;20225;-83
2020/12/08 02:47:10;;;;;;;15.00;11.37;;;;;;;;;;5095115;28;20217;-82
2020/12/08 02:49:36;;;;;;;14.60;11.37;;;;;;;;;;5094531;28;20538;-83
2020/12/08 02:52:02;;;;;;;12.60;10.90;;;;;;;;;;5095086;28;20230;-82
2020/12/08 02:54:29;;;;;;;13.53;10.90;;;;;;;;;;5094958;28;20225;-83
2020/12/08 02:56:55;;;;;;;12.43;10.40;;;;;;;;;;5095129;28;20249;-83
2020/12/08 02:59:22;;;;;;;16.63;12.27;;;;;;;;;;5095181;28;20531;-83
2020/12/08 03:01:48;;;;;;;15.73;11.83;;;;;;;;;;5095100;28;20541;-84
2020/12/08 03:04:14;;;;;;;15.90;12.13;;;;;;;;;;5094510;28;20233;-82
2020/12/08 03:06:41;;;;;;;15.67;12.60;;;;;;;;;;5094999;28;20240;-83
2020/12/08 03:09:07;;;;;;;15.23;11.67;;;;;;;;;;5094928;28;20245;-84
2020/12/08 03:11:34;;;;;;;14.70;11.50;;;;;;;;;;5094921;28;20241;-83
2020/12/08 03:14:00;;;;;;;15.80;12.60;;;;;;;;;;5094574;28;20229;-83
2020/12/08 03:16:26;;;;;;;15.07;11.83;;;;;;;;;;5093602;28;20230;-86
2020/12/08 03:18:52;;;;;;;15.87;12.03;;;;;;;;;;5094898;28;20639;-83
2020/12/08 03:21:18;;;;;;;15.27;11.70;;;;;;;;;;5093664;28;20202;-86
2020/12/08 03:23:44;;;;;;;14.47;12.20;;;;;;;;;;5094825;28;20233;-84
2020/12/08 03:26:10;;;;;;;14.47;12.33;;;;;;;;;;5094916;28;20225;-83
2020/12/08 03:28:37;;;;;;;14.63;11.80;;;;;;;;;;5094410;28;20239;-84
2020/12/08 03:31:03;;;;;;;13.17;11.47;;;;;;;;;;5094488;28;20249;-83
2020/12/08 03:33:29;;;;;;;13.60;11.53;;;;;;;;;;5094389;28;20242;-85
2020/12/08 03:35:55;;;;;;;13.53;11.50;;;;;;;;;;5094756;28;20734;-83
2020/12/08 03:38:22;;;;;;;13.67;11.80;;;;;;;;;;5094593;28;20245;-86
2020/12/08 03:40:48;;;;;;;14.87;12.37;;;;;;;;;;5094601;28;20248;-82
2020/12/08 03:43:15;;;;;;;13.23;11.47;;;;;;;;;;5093871;28;20535;-83
2020/12/08 03:45:42;;;;;;;14.53;11.73;;;;;;;;;;5094709;28;20256;-84
2020/12/08 03:48:08;;;;;;;14.97;11.67;;;;;;;;;;5094621;28;20640;-83
2020/12/08 03:50:34;;;;;;;13.63;11.77;;;;;;;;;;5094310;28;20241;-82
2020/12/08 03:53:00;;;;;;;14.07;11.47;;;;;;;;;;5094605;28;20233;-83
2020/12/08 03:55:26;;;;;;;19.43;11.87;;;;;;;;;;5094708;28;20233;-83
2020/12/08 03:57:52;;;;;;;14.57;11.60;;;;;;;;;;5094111;28;20238;-83
2020/12/08 04:00:18;;;;;;;17.40;11.97;;;;;;;;;;5094648;28;20636;-84
2020/12/08 04:02:45;;;;;;;13.67;12.03;;;;;;;;;;5097730;28;20229;-83
2020/12/08 04:05:11;;;;;;;16.67;12.47;;;;;;;;;;5098176;28;20237;-82
2020/12/08 04:07:38;;;;;;;14.97;12.70;;;;;;;;;;5097900;28;20225;-83
2020/12/08 04:10:04;;;;;;;14.93;12.10;;;;;;;;;;5096943;28;20197;-83
2020/12/08 04:12:30;;;;;;;14.43;12.00;;;;;;;;;;5097414;28;20237;-85
2020/12/08 04:14:56;;;;;;;12.97;10.93;;;;;;;;;;5098023;28;20237;-85
2020/12/08 04:17:22;;;;;;;13.60;11.30;;;;;;;;;;5097600;28;20579;-83
2020/12/08 04:19:49;;;;;;;13.93;11.63;;;;;;;;;;5097999;28;20233;-82
2020/12/08 04:22:15;;;;;;;13.63;11.93;;;;;;;;;;5097380;28;20226;-82
2020/12/08 04:24:41;;;;;;;13.87;11.77;;;;;;;;;;5097935;28;20226;-83
2020/12/08 04:27:07;;;;;;;15.80;12.83;;;;;;;;;;5097534;28;20229;-81
2020/12/08 04:29:33;;;;;;;14.97;11.37;;;;;;;;;;5097440;28;20228;-82
2020/12/08 04:31:59;;;;;;;13.43;11.87;;;;;;;;;;5096859;28;20630;-84
2020/12/08 04:34:25;;;;;;;13.47;11.53;;;;;;;;;;5097648;28;20229;-88
2020/12/08 04:36:52;;;;;;;13.20;11.17;;;;;;;;;;5097183;28;20237;-80
2020/12/08 04:39:19;;;;;;;13.07;10.87;;;;;;;;;;5097345;28;20237;-86
2020/12/08 04:41:45;;;;;;;13.33;11.40;;;;;;;;;;5097354;28;20229;-83
2020/12/08 04:44:11;;;;;;;15.23;11.70;;;;;;;;;;5097497;28;20232;-81
2020/12/08 04:46:38;;;;;;;16.77;11.90;;;;;;;;;;5097128;28;20236;-79
2020/12/08 04:49:04;;;;;;;15.27;13.20;;;;;;;;;;5097315;28;20234;-83
2020/12/08 04:51:30;;;;;;;15.23;12.80;;;;;;;;;;5096622;28;20222;-83
2020/12/08 04:53:57;;;;;;;15.77;12.50;;;;;;;;;;5095743;28;20229;-82
2020/12/08 04:56:23;;;;;;;17.23;12.70;;;;;;;;;;5096762;28;20249;-83
2020/12/08 04:58:49;;;;;;;16.63;13.27;;;;;;;;;;5096643;28;20621;-82
2020/12/08 05:01:24;;;;;;;15.23;13.03;;;;;;;;;;5096663;28;20240;-81
2020/12/08 05:03:55;;;;;;;13.40;12.00;;;;;;;;;;5096651;28;20205;-81
2020/12/08 05:06:21;;;;;;;15.40;12.63;;;;;;;;;;5096406;28;20228;-82
2020/12/08 05:08:58;;;;;;;14.03;12.13;;;;;;;;;;5095128;28;20255;-82
2020/12/08 05:11:26;;;;;;;15.90;12.57;;;;;;;;;;5096508;28;20224;-83
2020/12/08 05:13:56;;;;;;;16.67;13.17;;;;;;;;;;5096090;28;20226;-84
2020/12/08 05:16:22;;;;;;;16.67;13.37;;;;;;;;;;5096572;28;20249;-84
2020/12/08 05:18:48;;;;;;;14.57;12.63;;;;;;;;;;5096735;28;20233;-84
2020/12/08 05:21:14;;;;;;;15.87;12.43;;;;;;;;;;5096299;28;20234;-83
2020/12/08 05:23:41;;;;;;;16.63;13.17;;;;;;;;;;5096594;28;20225;-83
2020/12/08 05:26:08;;;;;;;15.37;12.47;;;;;;;;;;5096153;28;20214;-83
2020/12/08 05:28:35;;;;;;;14.60;11.70;;;;;;;;;;5096543;28;20253;-82
2020/12/08 05:31:01;;;;;;;14.07;11.33;;;;;;;;;;5096196;28;20252;-84
2020/12/08 05:33:27;;;;;;;15.73;11.30;;;;;;;;;;5096148;28;20209;-84
2020/12/08 05:35:56;;;;;;;15.17;12.47;;;;;;;;;;5096082;28;20256;-85
2020/12/08 05:38:25;;;;;;;14.07;11.87;;;;;;;;;;5094486;28;20243;-83
2020/12/08 05:40:52;;;;;;;14.60;12.33;;;;;;;;;;5096247;28;20221;-84
2020/12/08 05:43:20;;;;;;;14.70;11.70;;;;;;;;;;5096144;28;20244;-83
2020/12/08 05:45:48;;;;;;;17.80;13.70;;;;;;;;;;5096084;28;20244;-85
2020/12/08 05:48:20;;;;;;;16.27;12.70;;;;;;;;;;5096172;28;20218;-84
2020/12/08 05:50:47;;;;;;;15.67;12.80;;;;;;;;;;5095793;28;20640;-84
2020/12/08 05:53:16;;;;;;;16.83;13.73;;;;;;;;;;5095972;28;20499;-85
2020/12/08 05:55:42;;;;;;;21.80;13.70;;;;;;;;;;5095290;28;20668;-84
2020/12/08 05:58:09;;;;;;;15.97;13.07;;;;;;;;;;5095283;28;20249;-85
2020/12/08 06:00:37;;;;;;;18.90;13.67;;;;;;;;;;5095842;28;20202;-86
2020/12/08 06:03:09;;;;;;;17.10;12.90;;;;;;;;;;5095644;28;20225;-83
2020/12/08 06:05:36;;;;;;;17.60;12.63;;;;;;;;;;5094584;28;20213;-83
2020/12/08 06:08:12;;;;;;;15.07;12.67;;;;;;;;;;5094218;28;20225;-85
2020/12/08 06:10:42;;;;;;;16.80;13.57;;;;;;;;;;5095780;28;20229;-83
2020/12/08 06:13:08;;;;;;;19.90;13.30;;;;;;;;;;5095429;28;20234;-83
2020/12/08 06:15:39;;;;;;;15.97;13.10;;;;;;;;;;5094304;28;20225;-82
2020/12/08 06:18:05;;;;;;;18.03;13.73;;;;;;;;;;5094374;28;20253;-83
2020/12/08 06:20:31;;;;;;;18.93;15.57;;;;;;;;;;5094983;28;20228;-83
2020/12/08 06:22:58;;;;;;;20.70;15.73;;;;;;;;;;5094877;28;20626;-82
2020/12/08 06:25:24;;;;;;;21.53;16.27;;;;;;;;;;5093562;28;20240;-81
2020/12/08 06:27:50;;;;;;;21.03;16.20;;;;;;;;;;5094556;28;20206;-83
2020/12/08 06:30:20;;;;;;;19.50;15.53;;;;;;;;;;5094628;28;20229;-83
2020/12/08 06:32:47;;;;;;;21.40;15.00;;;;;;;;;;5094096;28;20650;-82
2020/12/08 06:35:14;;;;;;;16.33;13.63;;;;;;;;;;5094582;28;20542;-83
2020/12/08 06:37:44;;;;;;;16.57;13.67;;;;;;;;;;5094220;28;20260;-84
2020/12/08 06:40:11;;;;;;;17.53;13.40;;;;;;;;;;5095095;28;20201;-81
2020/12/08 06:42:37;;;;;;;15.23;13.20;;;;;;;;;;5095089;28;20212;-82
2020/12/08 06:45:14;;;;;;;16.10;13.40;;;;;;;;;;5094794;28;20244;-83
2020/12/08 06:47:40;;;;;;;18.17;13.57;;;;;;;;;;5094872;28;20229;-82
2020/12/08 06:50:20;;;;;;;19.40;14.53;;;;;;;;;;5095407;28;20206;-83
2020/12/08 06:52:50;;;;;;;19.10;14.87;;;;;;;;;;5095278;28;20237;-82
2020/12/08 06:55:16;;;;;;;17.70;14.13;;;;;;;;;;5094945;28;20294;-80
2020/12/08 06:57:42;;;;;;;19.10;13.93;;;;;;;;;;5094725;28;20253;-82
2020/12/08 07:00:09;;;;;;;18.97;14.83;;;;;;;;;;5095017;28;20228;-81
2020/12/08 07:02:49;;;;;;;21.10;15.27;;;;;;;;;;5093461;28;20194;-82
2020/12/08 07:05:17;;;;;;;19.73;15.23;;;;;;;;;;5094933;28;20244;-81
2020/12/08 07:07:43;;;;;;;23.10;16.27;;;;;;;;;;5095009;28;20208;-82
2020/12/08 07:10:10;;;;;;;19.57;15.40;;;;;;;;;;5094821;28;20202;-80
2020/12/08 07:12:42;;;;;;;19.80;14.60;;;;;;;;;;5094753;28;20240;-82
2020/12/08 07:15:11;;;;;;;21.33;15.40;;;;;;;;;;5094868;28;20674;-80
2020/12/08 07:17:37;;;;;;;18.23;14.30;;;;;;;;;;5094532;28;20284;-82
2020/12/08 07:20:05;;;;;;;18.30;14.13;;;;;;;;;;5094936;28;20225;-82
2020/12/08 07:22:42;;;;;;;18.40;14.17;;;;;;;;;;5094318;28;20213;-82
2020/12/08 07:25:08;;;;;;;17.73;14.00;;;;;;;;;;5094833;28;20208;-81
2020/12/08 07:27:35;;;;;;;18.63;14.20;;;;;;;;;;5094823;28;20494;-82
2020/12/08 07:30:02;;;;;;;17.80;15.00;;;;;;;;;;5094752;28;20471;-82
2020/12/08 07:32:29;;;;;;;20.77;16.13;;;;;;;;;;5094333;28;20826;-83
2020/12/08 07:34:55;;;;;;;23.63;16.20;;;;;;;;;;5094854;28;20237;-80
2020/12/08 07:37:21;;;;;;;22.37;16.87;;;;;;;;;;5097413;28;20550;-81
2020/12/08 07:39:48;;;;;;;20.97;16.83;;;;;;;;;;5098577;28;20240;-82
2020/12/08 07:42:17;;;;;;;20.77;16.27;;;;;;;;;;5098466;28;20233;-81
2020/12/08 07:44:53;;;;;;;23.90;15.20;;;;;;;;;;5098307;28;20633;-81
2020/12/08 07:47:19;;;;;;;15.87;13.53;;;;;;;;;;5098189;28;20233;-82
2020/12/08 07:49:45;;;;;;;18.60;14.40;;;;;;;;;;5098075;28;20311;-82
2020/12/08 07:52:12;;;;;;;18.00;14.50;;;;;;;;;;5098380;28;20240;-81
2020/12/08 07:54:38;;;;;;;18.47;14.93;;;;;;;;;;5098031;28;20197;-82
2020/12/08 07:57:05;;;;;;;18.20;14.27;;;;;;;;;;5098041;28;20253;-82
2020/12/08 07:59:31;;;;;;;17.80;14.43;;;;;;;;;;5097770;28;20240;-82
2020/12/08 08:01:57;;;;;;;18.73;13.87;;;;;;;;;;5098087;28;20340;-82
2020/12/08 08:04:24;;;;;;;16.60;13.67;;;;;;;;;;5098058;28;20645;-82
2020/12/08 08:06:50;;;;;;;21.90;14.80;;;;;;;;;;5097644;28;20650;-82
2020/12/08 08:09:16;;;;;;;18.97;14.40;;;;;;;;;;5097783;28;20244;-82
2020/12/08 08:11:42;;;;;;;17.93;13.93;;;;;;;;;;5097860;28;20229;-82
2020/12/08 08:14:09;;;;;;;18.80;14.43;;;;;;;;;;5097932;28;20260;-82
2020/12/08 08:16:35;;;;;;;18.33;14.57;;;;;;;;;;5097482;28;20236;-82
2020/12/08 08:19:02;;;;;;;19.97;14.40;;;;;;;;;;5097545;28;20253;-82
2020/12/08 08:21:28;;;;;;;19.63;14.73;;;;;;;;;;5096945;28;20209;-81
2020/12/08 08:23:57;;;;;;;17.50;13.80;;;;;;;;;;5097780;28;20229;-81
2020/12/08 08:26:23;;;;;;;16.97;14.17;;;;;;;;;;5097375;28;20216;-82
2020/12/08 08:28:49;;;;;;;16.67;13.40;;;;;;;;;;5097775;28;20209;-82
2020/12/08 08:31:16;;;;;;;21.27;14.83;;;;;;;;;;5097007;28;20252;-82
2020/12/08 08:33:42;;;;;;;16.20;13.73;;;;;;;;;;5097652;28;20271;-82
2020/12/08 08:36:09;;;;;;;17.43;13.33;;;;;;;;;;5097124;28;20255;-81
2020/12/08 08:38:35;;;;;;;17.30;13.57;;;;;;;;;;5097024;28;20661;-81
2020/12/08 08:41:01;;;;;;;17.87;14.30;;;;;;;;;;5096323;28;20242;-82
2020/12/08 08:43:27;;;;;;;20.17;13.93;;;;;;;;;;5097530;28;20234;-82
2020/12/08 08:45:54;;;;;;;16.13;13.20;;;;;;;;;;5096883;28;20222;-81
2020/12/08 08:48:21;;;;;;;17.87;14.33;;;;;;;;;;5096302;28;20641;-81
2020/12/08 08:50:47;;;;;;;23.47;15.50;;;;;;;;;;5095582;28;20517;-81
2020/12/08 08:53:14;;;;;;;21.07;15.17;;;;;;;;;;5097110;28;20580;-83
2020/12/08 08:55:40;;;;;;;19.10;15.27;;;;;;;;;;5096846;28;20242;-83
2020/12/08 08:58:06;;;;;;;21.10;15.20;;;;;;;;;;5097072;28;20245;-83
2020/12/08 09:00:32;;;;;;;20.80;15.77;;;;;;;;;;5096655;28;20237;-83
2020/12/08 09:02:59;;;;;;;21.30;16.10;;;;;;;;;;5096941;28;20515;-82
2020/12/08 09:05:26;;;;;;;24.67;16.60;;;;;;;;;;5096908;28;20237;-82
2020/12/08 09:07:53;;;;;;;22.30;17.07;;;;;;;;;;5096649;28;20614;-82
2020/12/08 09:10:19;;;;;;;21.97;17.10;;;;;;;;;;5096570;28;20226;-81
2020/12/08 09:12:45;;;;;;;24.63;15.93;;;;;;;;;;5096724;28;20230;-83
2020/12/08 09:15:11;;;;;;;23.00;17.17;;;;;;;;;;5096691;28;20244;-85
2020/12/08 09:17:37;;;;;;;21.23;17.03;;;;;;;;;;5096566;28;20250;-83
2020/12/08 09:20:04;;;;;;;20.50;16.07;;;;;;;;;;5096525;28;20233;-82
2020/12/08 09:22:31;;;;;;;21.73;16.50;;;;;;;;;;5096542;28;20541;-83
2020/12/08 09:24:57;;;;;;;20.57;15.63;;;;;;;;;;5096549;28;20206;-83
2020/12/08 09:27:23;;;;;;;21.17;16.53;;;;;;;;;;5096525;28;20527;-82
2020/12/08 09:29:49;;;;;;;21.87;16.57;;;;;;;;;;5096480;28;20233;-84
2020/12/08 09:32:16;;;;;;;24.77;17.40;;;;;;;;;;5095930;28;20241;-83
2020/12/08 09:34:42;;;;;;;22.00;17.47;;;;;;;;;;5096308;28;20221;-83
2020/12/08 09:37:08;;;;;;;24.60;15.87;;;;;;;;;;5096198;28;20225;-84
2020/12/08 09:39:36;;;;;;;22.43;17.03;;;;;;;;;;5096288;28;20303;-83
2020/12/08 09:42:03;;;;;;;18.27;15.43;;;;;;;;;;5096206;28;20232;-83
2020/12/08 09:44:29;;;;;;;20.40;16.27;;;;;;;;;;5096189;28;20244;-82
2020/12/08 09:46:55;;;;;;;20.80;16.47;;;;;;;;;;5096131;28;20209;-84
2020/12/08 09:49:21;;;;;;;21.67;16.30;;;;;;;;;;5094882;28;20174;-82
2020/12/08 09:51:47;;;;;;;19.53;16.07;;;;;;;;;;5095694;28;20677;-86
2020/12/08 09:54:14;;;;;;;19.23;14.97;;;;;;;;;;5095964;28;20241;-87
2020/12/08 09:56:44;;;;;;;22.13;16.77;;;;;;;;;;5095377;28;20233;-86
2020/12/08 09:59:10;;;;;;;22.00;16.93;;;;;;;;;;5095819;28;20249;-89
2020/12/08 10:01:36;;;;;;;20.30;16.33;;;;;;;;;;5095971;28;20225;-82
2020/12/08 10:04:03;;;;;;;18.80;15.73;;;;;;;;;;5095894;28;20229;-84
2020/12/08 10:06:29;;;;;;;19.50;16.10;;;;;;;;;;5094782;28;20233;-84
2020/12/08 10:08:56;;;;;;;21.83;15.33;;;;;;;;;;5096132;28;20641;-87
2020/12/08 10:11:22;;;;;;;19.30;15.80;;;;;;;;;;5096544;28;20237;-87
2020/12/08 10:13:49;;;;;;;20.30;15.53;;;;;;;;;;5094761;28;20216;-88
2020/12/08 10:16:18;;;;;;;19.00;16.13;;;;;;;;;;5094306;28;20205;-82
2020/12/08 10:18:44;;;;;;;21.73;15.87;;;;;;;;;;5095950;28;20277;-90
2020/12/08 10:21:10;;;;;;;19.25;16.10;;;;;;;;;;5095430;28;20779;-88
2020/12/08 10:23:36;;;;;;;18.40;15.77;;;;;;;;;;5095207;28;20234;-83
2020/12/08 10:26:02;;;;;;;18.37;15.17;;;;;;;;;;5095206;28;20213;-83
2020/12/08 10:28:28;;;;;;;19.90;15.87;;;;;;;;;;5095499;28;20633;-82
2020/12/08 10:30:55;;;;;;;19.43;16.03;;;;;;;;;;5094941;28;20225;-83
2020/12/08 10:33:21;;;;;;;20.90;16.40;;;;;;;;;;5095413;28;20201;-84
2020/12/08 10:35:47;;;;;;;20.57;16.27;;;;;;;;;;5093779;28;20198;-86
2020/12/08 10:38:14;;;;;;;17.73;15.43;;;;;;;;;;5095164;28;20245;-85
2020/12/08 10:40:40;;;;;;;19.17;15.60;;;;;;;;;;5093677;28;20266;-86
2020/12/08 10:43:06;;;;;;;18.53;15.07;;;;;;;;;;5095029;28;20240;-85
2020/12/08 10:45:32;;;;;;;18.33;15.07;;;;;;;;;;5095179;28;20240;-82
2020/12/08 10:47:59;;;;;;;16.50;14.17;;;;;;;;;;5095295;28;20803;-81
2020/12/08 10:50:25;;;;;;;20.23;14.93;;;;;;;;;;5095197;28;20240;-80
2020/12/08 10:52:51;;;;;;;16.10;14.00;;;;;;;;;;5095116;28;20241;-83
2020/12/08 10:55:18;;;;;;;16.97;13.30;;;;;;;;;;5094897;28;20248;-83
2020/12/08 10:57:44;;;;;;;16.93;14.57;;;;;;;;;;5094795;28;20565;-80
2020/12/08 11:00:10;;;;;;;16.00;14.30;;;;;;;;;;5095032;28;20234;-84
2020/12/08 11:02:37;;;;;;;16.23;13.43;;;;;;;;;;5095174;28;20230;-82
2020/12/08 11:05:07;;;;;;;16.37;13.03;;;;;;;;;;5094606;28;20233;-84
2020/12/08 11:07:33;;;;;;;16.03;13.47;;;;;;;;;;5094668;28;20205;-83
2020/12/08 11:09:59;;;;;;;16.00;14.00;;;;;;;;;;5094996;28;20537;-82
2020/12/08 11:12:25;;;;;;;17.57;13.93;;;;;;;;;;5098111;28;20613;-82
2020/12/08 11:14:51;;;;;;;15.67;13.83;;;;;;;;;;5098546;28;20236;-81
2020/12/08 11:17:17;;;;;;;16.17;14.13;;;;;;;;;;5098371;28;20229;-82
2020/12/08 11:19:43;;;;;;;18.20;14.97;;;;;;;;;;5098874;28;20256;-83
2020/12/08 11:22:11;;;;;;;17.63;14.70;;;;;;;;;;5098538;28;20240;-82
2020/12/08 11:24:37;;;;;;;15.80;13.50;;;;;;;;;;5099037;28;20237;-83
2020/12/08 11:27:04;;;;;;;15.10;13.30;;;;;;;;;;5098493;28;20233;-83
2020/12/08 11:29:30;;;;;;;18.57;14.23;;;;;;;;;;5098625;28;20240;-82
2020/12/08 11:31:56;;;;;;;18.80;14.73;;;;;;;;;;5098010;28;20249;-84
2020/12/08 11:34:22;;;;;;;16.17;14.43;;;;;;;;;;5098797;28;20221;-86
2020/12/08 11:36:48;;;;;;;17.10;14.93;;;;;;;;;;5098449;28;20229;-83
2020/12/08 11:39:15;;;;;;;18.20;15.10;;;;;;;;;;5097322;28;20237;-84
2020/12/08 11:41:41;;;;;;;18.90;15.10;;;;;;;;;;5098127;28;20240;-83
2020/12/08 11:44:07;;;;;;;20.30;16.33;;;;;;;;;;5098671;28;20229;-84
2020/12/08 11:46:34;;;;;;;18.30;14.97;;;;;;;;;;5096549;28;20228;-83
2020/12/08 11:49:00;;;;;;;20.73;15.47;;;;;;;;;;5098004;28;20221;-84
2020/12/08 11:51:26;;;;;;;18.67;16.30;;;;;;;;;;5098440;28;20229;-84
2020/12/08 11:53:52;;;;;;;17.87;15.07;;;;;;;;;;5098014;28;20229;-84
2020/12/08 11:56:20;;;;;;;20.90;15.67;;;;;;;;;;5097982;28;20237;-82
2020/12/08 11:58:46;;;;;;;19.20;16.43;;;;;;;;;;5098558;28;20271;-83
2020/12/08 12:01:12;;;;;;;19.70;15.70;;;;;;;;;;5098215;28;20270;-83
2020/12/08 12:03:38;;;;;;;23.17;15.47;;;;;;;;;;5098078;28;20229;-83
2020/12/08 12:06:04;;;;;;;18.83;16.07;;;;;;;;;;5097435;28;20236;-83
2020/12/08 12:08:30;;;;;;;21.30;15.27;;;;;;;;;;5098014;28;20248;-84
2020/12/08 12:10:56;;;;;;;20.00;16.83;;;;;;;;;;5097696;28;20229;-83
2020/12/08 12:13:23;;;;;;;21.00;17.00;;;;;;;;;;5097673;28;20233;-83
2020/12/08 12:15:49;;;;;;;22.53;17.33;;;;;;;;;;5097220;28;20241;-83
2020/12/08 12:18:15;;;;;;;24.63;16.93;;;;;;;;;;5097843;28;20549;-82
2020/12/08 12:20:41;;;;;;;21.13;16.73;;;;;;;;;;5097827;28;20229;-81
2020/12/08 12:23:07;;;;;;;24.47;17.30;;;;;;;;;;5096598;28;20236;-82
2020/12/08 12:25:34;;;;;;;20.07;16.90;;;;;;;;;;5097168;28;20217;-82
2020/12/08 12:28:00;;;;;;;23.43;16.53;;;;;;;;;;5097801;28;20244;-82
2020/12/08 12:30:27;;;;;;;19.47;16.73;;;;;;;;;;5097126;28;20233;-82
2020/12/08 12:32:53;;;;;;;23.97;17.70;;;;;;;;;;5097300;28;20244;-82
2020/12/08 12:35:19;;;;;;;20.67;16.97;;;;;;;;;;5097471;28;20602;-82
2020/12/08 12:37:45;;;;;;;23.73;18.13;;;;;;;;;;5097556;28;20617;-82
2020/12/08 12:40:11;;;;;;;20.40;16.57;;;;;;;;;;5097009;28;20234;-83
2020/12/08 12:42:37;;;;;;;20.43;17.47;;;;;;;;;;5097226;28;20233;-89
2020/12/08 12:45:03;;;;;;;20.13;17.17;;;;;;;;;;5096970;28;20230;-85
2020/12/08 12:47:30;;;;;;;19.70;16.97;;;;;;;;;;5097602;28;20226;-85
2020/12/08 12:49:56;;;;;;;22.10;17.73;;;;;;;;;;5097151;28;20217;-83
2020/12/08 12:52:23;;;;;;;31.80;19.20;;;;;;;;;;5097242;28;20221;-83
2020/12/08 12:54:49;;;;;;;26.20;17.03;;;;;;;;;;5095840;28;20232;-84
2020/12/08 12:57:15;;;;;;;24.33;18.37;;;;;;;;;;5097118;28;20240;-83
2020/12/08 12:59:41;;;;;;;20.03;16.90;;;;;;;;;;5096637;28;20241;-83
2020/12/08 13:02:07;;;;;;;20.50;17.33;;;;;;;;;;5096874;28;20617;-87
2020/12/08 13:04:34;;;;;;;22.13;16.27;;;;;;;;;;5095986;28;20229;-84
2020/12/08 13:07:00;;;;;;;17.00;14.77;;;;;;;;;;5096005;28;20485;-83
2020/12/08 13:09:26;;;;;;;19.00;16.23;;;;;;;;;;5095920;28;20221;-83
2020/12/08 13:11:52;;;;;;;19.77;16.47;;;;;;;;;;5096246;28;20237;-85
2020/12/08 13:14:18;;;;;;;19.00;16.43;;;;;;;;;;5096148;28;20230;-83
2020/12/08 13:16:44;;;;;;;19.40;15.47;;;;;;;;;;5096288;28;20233;-83
2020/12/08 13:19:12;;;;;;;21.53;17.23;;;;;;;;;;5095820;28;20269;-83
2020/12/08 13:21:39;;;;;;;21.07;16.13;;;;;;;;;;5096530;28;20529;-82
2020/12/08 13:24:05;;;;;;;18.30;16.13;;;;;;;;;;5096290;28;20240;-84
2020/12/08 13:26:31;;;;;;;17.83;15.50;;;;;;;;;;5096469;28;20241;-85
2020/12/08 13:28:57;;;;;;;17.87;15.37;;;;;;;;;;5096047;28;20229;-87
2020/12/08 13:31:25;;;;;;;19.70;15.80;;;;;;;;;;5095948;28;20283;-86
2020/12/08 13:33:51;;;;;;;20.93;15.53;;;;;;;;;;5095609;28;20317;-85
2020/12/08 13:36:17;;;;;;;18.33;15.87;;;;;;;;;;5096244;28;20198;-85
2020/12/08 13:38:45;;;;;;;18.13;15.20;;;;;;;;;;5096847;28;20515;-82
2020/12/08 13:41:11;;;;;;;16.43;14.60;;;;;;;;;;5096225;28;20919;-84
2020/12/08 13:43:37;;;;;;;16.90;15.10;;;;;;;;;;5096067;28;20234;-84
2020/12/08 13:46:03;;;;;;;18.57;16.00;;;;;;;;;;5095876;28;20225;-84
2020/12/08 13:48:29;;;;;;;18.77;15.63;;;;;;;;;;5096026;28;20606;-83
2020/12/08 13:50:55;;;;;;;22.77;15.07;;;;;;;;;;5095773;28;20230;-84
2020/12/08 13:53:22;;;;;;;17.03;14.37;;;;;;;;;;5095947;28;20225;-85
2020/12/08 13:55:50;;;;;;;18.57;14.13;;;;;;;;;;5095631;28;20225;-84
2020/12/08 13:58:16;;;;;;;16.67;14.57;;;;;;;;;;5095631;28;20233;-84
2020/12/08 14:00:42;;;;;;;19.27;16.53;;;;;;;;;;5095509;28;20288;-83
2020/12/08 14:03:09;;;;;;;20.50;15.83;;;;;;;;;;5094712;28;20262;-85
2020/12/08 14:05:36;;;;;;;19.43;15.23;;;;;;;;;;5095556;28;20229;-84
2020/12/08 14:08:02;;;;;;;18.17;15.20;;;;;;;;;;5095196;28;20641;-84
2020/12/08 14:10:28;;;;;;;19.75;17.75;;;;;;;;;;5093745;28;20787;-83
2020/12/08 14:12:55;;;;;;;19.63;16.67;;;;;;;;;;5094850;28;20483;-83
2020/12/08 14:15:21;;;;;;;22.20;18.20;;;;;;;;;;5095027;28;20233;-83